sensor_id;sensor_type;location;lat;lon;timestamp;temperature;humidity
79065;DHT22;68469;51.502;7.462;2023-03-12T00:00:20;18.60;60.10
79065;DHT22;68469;51.502;7.462;2023-03-12T00:02:46;18.70;60.00
79065;DHT22;68469;51.502;7.462;2023-03-12T00:05:12;18.60;60.10
79065;DHT22;68469;51.502;7.462;2023-03-12T00:07:37;18.60;60.00
79065;DHT22;68469;51.502;7.462;2023-03-12T00:10:05;18.60;60.10
79065;DHT22;68469;51.502;7.462;2023-03-12T00:12:30;18.60;60.60
79065;DHT22;68469;51.502;7.462;2023-03-12T00:14:56;18.60;60.10
79065;DHT22;68469;51.502;7.462;2023-03-12T00:17:22;18.70;60.00
79065;DHT22;68469;51.502;7.462;2023-03-12T00:19:53;18.60;60.10
79065;DHT22;68469;51.502;7.462;2023-03-12T00:22:19;18.60;60.00
79065;DHT22;68469;51.502;7.462;2023-03-12T00:24:52;18.60;60.10
79065;DHT22;68469;51.502;7.462;2023-03-12T00:27:18;18.60;60.00
79065;DHT22;68469;51.502;7.462;2023-03-12T00:29:44;18.60;60.10
79065;DHT22;68469;51.502;7.462;2023-03-12T00:32:10;18.60;60.10
79065;DHT22;68469;51.502;7.462;2023-03-12T00:34:35;18.60;60.10
79065;DHT22;68469;51.502;7.462;2023-03-12T00:37:01;18.60;60.10
79065;DHT22;68469;51.502;7.462;2023-03-12T00:39:27;18.60;60.10
79065;DHT22;68469;51.502;7.462;2023-03-12T00:41:52;18.60;60.00
79065;DHT22;68469;51.502;7.462;2023-03-12T00:44:18;18.60;60.00
79065;DHT22;68469;51.502;7.462;2023-03-12T00:46:44;18.60;60.20
79065;DHT22;68469;51.502;7.462;2023-03-12T00:49:10;18.60;60.10
79065;DHT22;68469;51.502;7.462;2023-03-12T00:51:36;18.60;60.20
79065;DHT22;68469;51.502;7.462;2023-03-12T00:54:02;18.60;60.20
79065;DHT22;68469;51.502;7.462;2023-03-12T00:56:28;18.60;60.10
79065;DHT22;68469;51.502;7.462;2023-03-12T00:58:53;18.60;60.10
79065;DHT22;68469;51.502;7.462;2023-03-12T01:01:19;18.60;60.00
79065;DHT22;68469;51.502;7.462;2023-03-12T01:03:45;18.60;60.10
79065;DHT22;68469;51.502;7.462;2023-03-12T01:06:11;18.60;60.10
79065;DHT22;68469;51.502;7.462;2023-03-12T01:08:37;18.60;60.10
79065;DHT22;68469;51.502;7.462;2023-03-12T01:11:03;18.60;60.10
79065;DHT22;68469;51.502;7.462;2023-03-12T01:13:29;18.60;60.10
79065;DHT22;68469;51.502;7.462;2023-03-12T01:15:54;18.60;60.10
79065;DHT22;68469;51.502;7.462;2023-03-12T01:18:20;18.60;60.10
79065;DHT22;68469;51.502;7.462;2023-03-12T01:20:46;18.60;60.00
79065;DHT22;68469;51.502;7.462;2023-03-12T01:23:11;18.60;60.10
79065;DHT22;68469;51.502;7.462;2023-03-12T01:25:37;18.60;60.00
79065;DHT22;68469;51.502;7.462;2023-03-12T01:28:03;18.60;60.00
79065;DHT22;68469;51.502;7.462;2023-03-12T01:30:29;18.60;60.00
79065;DHT22;68469;51.502;7.462;2023-03-12T01:32:55;18.60;60.00
79065;DHT22;68469;51.502;7.462;2023-03-12T01:35:20;18.60;60.00
79065;DHT22;68469;51.502;7.462;2023-03-12T01:37:46;18.60;60.00
79065;DHT22;68469;51.502;7.462;2023-03-12T01:40:15;18.60;60.10
79065;DHT22;68469;51.502;7.462;2023-03-12T01:42:41;18.60;60.10
79065;DHT22;68469;51.502;7.462;2023-03-12T01:48:10;18.60;60.00
79065;DHT22;68469;51.502;7.462;2023-03-12T01:50:36;18.60;60.00
79065;DHT22;68469;51.502;7.462;2023-03-12T01:53:02;18.60;60.00
79065;DHT22;68469;51.502;7.462;2023-03-12T01:55:28;18.60;60.10
79065;DHT22;68469;51.502;7.462;2023-03-12T01:57:56;18.60;60.00
79065;DHT22;68469;51.502;7.462;2023-03-12T02:00:24;18.60;60.00
79065;DHT22;68469;51.502;7.462;2023-03-12T02:02:51;18.50;60.00
79065;DHT22;68469;51.502;7.462;2023-03-12T02:05:30;18.50;60.00
79065;DHT22;68469;51.502;7.462;2023-03-12T02:07:58;18.60;60.00
79065;DHT22;68469;51.502;7.462;2023-03-12T02:10:24;18.60;60.00
79065;DHT22;68469;51.502;7.462;2023-03-12T02:12:50;18.60;60.00
79065;DHT22;68469;51.502;7.462;2023-03-12T02:15:16;18.50;60.00
79065;DHT22;68469;51.502;7.462;2023-03-12T02:17:42;18.60;60.00
79065;DHT22;68469;51.502;7.462;2023-03-12T02:20:32;18.60;60.00
79065;DHT22;68469;51.502;7.462;2023-03-12T02:23:12;18.60;60.00
79065;DHT22;68469;51.502;7.462;2023-03-12T02:25:49;18.60;60.00
79065;DHT22;68469;51.502;7.462;2023-03-12T02:28:18;18.60;60.00
79065;DHT22;68469;51.502;7.462;2023-03-12T02:30:48;18.50;60.00
79065;DHT22;68469;51.502;7.462;2023-03-12T02:33:14;18.50;60.00
79065;DHT22;68469;51.502;7.462;2023-03-12T02:35:41;18.60;60.00
79065;DHT22;68469;51.502;7.462;2023-03-12T02:43:39;18.50;59.90
79065;DHT22;68469;51.502;7.462;2023-03-12T02:46:05;18.50;60.00
79065;DHT22;68469;51.502;7.462;2023-03-12T02:48:32;18.50;60.00
79065;DHT22;68469;51.502;7.462;2023-03-12T02:50:58;18.50;59.90
79065;DHT22;68469;51.502;7.462;2023-03-12T02:53:23;18.50;59.90
79065;DHT22;68469;51.502;7.462;2023-03-12T02:55:49;18.50;60.00
79065;DHT22;68469;51.502;7.462;2023-03-12T02:58:14;18.50;60.00
79065;DHT22;68469;51.502;7.462;2023-03-12T03:00:40;18.50;59.90
79065;DHT22;68469;51.502;7.462;2023-03-12T03:03:06;18.50;59.90
79065;DHT22;68469;51.502;7.462;2023-03-12T03:05:31;18.50;59.90
79065;DHT22;68469;51.502;7.462;2023-03-12T03:07:57;18.50;59.90
79065;DHT22;68469;51.502;7.462;2023-03-12T03:10:22;18.50;59.90
79065;DHT22;68469;51.502;7.462;2023-03-12T03:12:48;18.50;59.90
79065;DHT22;68469;51.502;7.462;2023-03-12T03:15:14;18.50;59.90
79065;DHT22;68469;51.502;7.462;2023-03-12T03:17:40;18.50;59.90
79065;DHT22;68469;51.502;7.462;2023-03-12T03:20:06;18.50;59.90
79065;DHT22;68469;51.502;7.462;2023-03-12T03:22:35;18.50;59.90
79065;DHT22;68469;51.502;7.462;2023-03-12T03:25:02;18.50;59.90
79065;DHT22;68469;51.502;7.462;2023-03-12T03:27:27;18.50;59.90
79065;DHT22;68469;51.502;7.462;2023-03-12T03:29:53;18.50;60.00
79065;DHT22;68469;51.502;7.462;2023-03-12T03:32:18;18.50;59.90
79065;DHT22;68469;51.502;7.462;2023-03-12T03:34:44;18.50;59.90
79065;DHT22;68469;51.502;7.462;2023-03-12T03:37:10;18.50;59.80
79065;DHT22;68469;51.502;7.462;2023-03-12T03:39:35;18.50;59.90
79065;DHT22;68469;51.502;7.462;2023-03-12T03:42:01;18.50;59.90
79065;DHT22;68469;51.502;7.462;2023-03-12T03:44:27;18.50;60.00
79065;DHT22;68469;51.502;7.462;2023-03-12T03:46:53;18.50;60.00
79065;DHT22;68469;51.502;7.462;2023-03-12T03:49:19;18.50;59.90
79065;DHT22;68469;51.502;7.462;2023-03-12T03:51:45;18.50;59.90
79065;DHT22;68469;51.502;7.462;2023-03-12T03:54:11;18.50;59.90
79065;DHT22;68469;51.502;7.462;2023-03-12T03:56:36;18.50;60.00
79065;DHT22;68469;51.502;7.462;2023-03-12T03:59:02;18.50;59.80
79065;DHT22;68469;51.502;7.462;2023-03-12T04:01:28;18.50;59.80
79065;DHT22;68469;51.502;7.462;2023-03-12T04:03:55;18.50;60.00
79065;DHT22;68469;51.502;7.462;2023-03-12T04:06:21;18.50;59.90
79065;DHT22;68469;51.502;7.462;2023-03-12T04:08:47;18.50;59.90
79065;DHT22;68469;51.502;7.462;2023-03-12T04:11:15;18.50;59.90
79065;DHT22;68469;51.502;7.462;2023-03-12T04:13:41;18.50;59.90
79065;DHT22;68469;51.502;7.462;2023-03-12T04:16:08;18.50;59.80
79065;DHT22;68469;51.502;7.462;2023-03-12T04:18:33;18.50;59.90
79065;DHT22;68469;51.502;7.462;2023-03-12T04:21:00;18.50;59.90
79065;DHT22;68469;51.502;7.462;2023-03-12T04:23:26;18.50;59.90
79065;DHT22;68469;51.502;7.462;2023-03-12T04:25:52;18.50;60.00
79065;DHT22;68469;51.502;7.462;2023-03-12T04:28:17;18.50;59.90
79065;DHT22;68469;51.502;7.462;2023-03-12T04:30:43;18.40;59.90
79065;DHT22;68469;51.502;7.462;2023-03-12T04:33:08;18.50;59.90
79065;DHT22;68469;51.502;7.462;2023-03-12T04:35:34;18.50;59.90
79065;DHT22;68469;51.502;7.462;2023-03-12T04:38:00;18.50;59.90
79065;DHT22;68469;51.502;7.462;2023-03-12T04:40:26;18.50;60.00
79065;DHT22;68469;51.502;7.462;2023-03-12T04:42:51;18.50;60.00
79065;DHT22;68469;51.502;7.462;2023-03-12T04:45:17;18.50;60.00
79065;DHT22;68469;51.502;7.462;2023-03-12T04:47:42;18.50;60.00
79065;DHT22;68469;51.502;7.462;2023-03-12T04:50:09;18.50;60.00
79065;DHT22;68469;51.502;7.462;2023-03-12T04:52:35;18.50;60.00
79065;DHT22;68469;51.502;7.462;2023-03-12T04:55:01;18.50;60.00
79065;DHT22;68469;51.502;7.462;2023-03-12T04:57:26;18.50;60.00
79065;DHT22;68469;51.502;7.462;2023-03-12T04:59:52;18.50;60.00
79065;DHT22;68469;51.502;7.462;2023-03-12T05:02:17;18.50;59.90
79065;DHT22;68469;51.502;7.462;2023-03-12T05:04:43;18.50;59.90
79065;DHT22;68469;51.502;7.462;2023-03-12T05:07:09;18.50;59.90
79065;DHT22;68469;51.502;7.462;2023-03-12T05:09:34;18.40;59.90
79065;DHT22;68469;51.502;7.462;2023-03-12T05:12:00;18.50;60.00
79065;DHT22;68469;51.502;7.462;2023-03-12T05:14:26;18.50;59.90
79065;DHT22;68469;51.502;7.462;2023-03-12T05:16:51;18.50;59.90
79065;DHT22;68469;51.502;7.462;2023-03-12T05:19:17;18.50;59.90
79065;DHT22;68469;51.502;7.462;2023-03-12T05:21:43;18.50;59.90
79065;DHT22;68469;51.502;7.462;2023-03-12T05:24:10;18.50;59.80
79065;DHT22;68469;51.502;7.462;2023-03-12T05:26:36;18.50;59.80
79065;DHT22;68469;51.502;7.462;2023-03-12T05:29:03;18.50;59.80
79065;DHT22;68469;51.502;7.462;2023-03-12T05:31:29;18.50;60.00
79065;DHT22;68469;51.502;7.462;2023-03-12T05:33:57;18.50;59.80
79065;DHT22;68469;51.502;7.462;2023-03-12T05:36:23;18.40;59.90
79065;DHT22;68469;51.502;7.462;2023-03-12T05:38:49;18.50;59.90
79065;DHT22;68469;51.502;7.462;2023-03-12T05:41:23;18.50;59.90
79065;DHT22;68469;51.502;7.462;2023-03-12T05:43:49;18.50;59.80
79065;DHT22;68469;51.502;7.462;2023-03-12T05:46:14;18.50;59.80
79065;DHT22;68469;51.502;7.462;2023-03-12T05:48:40;18.40;59.80
79065;DHT22;68469;51.502;7.462;2023-03-12T05:51:06;18.50;59.80
79065;DHT22;68469;51.502;7.462;2023-03-12T05:53:32;18.50;59.80
79065;DHT22;68469;51.502;7.462;2023-03-12T05:56:06;18.50;59.90
79065;DHT22;68469;51.502;7.462;2023-03-12T05:58:33;18.50;59.80
79065;DHT22;68469;51.502;7.462;2023-03-12T06:00:59;18.50;59.90
79065;DHT22;68469;51.502;7.462;2023-03-12T06:03:24;18.50;59.80
79065;DHT22;68469;51.502;7.462;2023-03-12T06:05:50;18.40;59.80
79065;DHT22;68469;51.502;7.462;2023-03-12T06:08:23;18.40;59.80
79065;DHT22;68469;51.502;7.462;2023-03-12T06:10:51;18.40;59.80
79065;DHT22;68469;51.502;7.462;2023-03-12T06:13:19;18.50;59.90
79065;DHT22;68469;51.502;7.462;2023-03-12T06:15:45;18.50;59.90
79065;DHT22;68469;51.502;7.462;2023-03-12T06:18:11;18.40;59.90
79065;DHT22;68469;51.502;7.462;2023-03-12T06:20:36;18.40;59.70
79065;DHT22;68469;51.502;7.462;2023-03-12T06:23:02;18.50;59.80
79065;DHT22;68469;51.502;7.462;2023-03-12T06:25:27;18.40;59.80
79065;DHT22;68469;51.502;7.462;2023-03-12T06:27:53;18.50;59.70
79065;DHT22;68469;51.502;7.462;2023-03-12T06:30:18;18.50;59.70
79065;DHT22;68469;51.502;7.462;2023-03-12T06:32:44;18.50;59.70
79065;DHT22;68469;51.502;7.462;2023-03-12T06:35:10;18.50;59.80
79065;DHT22;68469;51.502;7.462;2023-03-12T06:37:35;18.50;59.80
79065;DHT22;68469;51.502;7.462;2023-03-12T06:40:01;18.50;59.70
79065;DHT22;68469;51.502;7.462;2023-03-12T06:42:27;18.40;59.80
79065;DHT22;68469;51.502;7.462;2023-03-12T06:44:52;18.50;59.70
79065;DHT22;68469;51.502;7.462;2023-03-12T06:47:18;18.50;59.90
79065;DHT22;68469;51.502;7.462;2023-03-12T06:49:44;18.40;59.70
79065;DHT22;68469;51.502;7.462;2023-03-12T06:52:09;18.50;59.70
79065;DHT22;68469;51.502;7.462;2023-03-12T06:54:35;18.50;59.70
79065;DHT22;68469;51.502;7.462;2023-03-12T06:57:01;18.40;59.70
79065;DHT22;68469;51.502;7.462;2023-03-12T06:59:26;18.40;59.70
79065;DHT22;68469;51.502;7.462;2023-03-12T07:01:52;18.40;59.80
79065;DHT22;68469;51.502;7.462;2023-03-12T07:04:18;18.40;59.60
79065;DHT22;68469;51.502;7.462;2023-03-12T07:06:44;18.40;59.70
79065;DHT22;68469;51.502;7.462;2023-03-12T07:09:15;18.40;59.70
79065;DHT22;68469;51.502;7.462;2023-03-12T07:11:41;18.50;59.70
79065;DHT22;68469;51.502;7.462;2023-03-12T07:14:06;18.40;59.80
79065;DHT22;68469;51.502;7.462;2023-03-12T07:16:32;18.50;59.80
79065;DHT22;68469;51.502;7.462;2023-03-12T07:18:59;18.50;59.80
79065;DHT22;68469;51.502;7.462;2023-03-12T07:21:25;18.50;59.80
79065;DHT22;68469;51.502;7.462;2023-03-12T07:23:50;18.50;59.80
79065;DHT22;68469;51.502;7.462;2023-03-12T07:26:16;18.40;59.70
79065;DHT22;68469;51.502;7.462;2023-03-12T07:28:42;18.40;59.80
79065;DHT22;68469;51.502;7.462;2023-03-12T07:31:08;18.50;59.80
79065;DHT22;68469;51.502;7.462;2023-03-12T07:33:34;18.50;59.70
79065;DHT22;68469;51.502;7.462;2023-03-12T07:36:00;18.40;59.80
79065;DHT22;68469;51.502;7.462;2023-03-12T07:38:25;18.40;59.70
79065;DHT22;68469;51.502;7.462;2023-03-12T07:40:55;18.40;59.70
79065;DHT22;68469;51.502;7.462;2023-03-12T07:43:21;18.40;59.70
79065;DHT22;68469;51.502;7.462;2023-03-12T07:45:47;18.50;59.80
79065;DHT22;68469;51.502;7.462;2023-03-12T07:48:13;18.40;59.80
79065;DHT22;68469;51.502;7.462;2023-03-12T07:50:39;18.40;59.70
79065;DHT22;68469;51.502;7.462;2023-03-12T07:53:04;18.40;59.80
79065;DHT22;68469;51.502;7.462;2023-03-12T07:55:33;18.40;59.70
79065;DHT22;68469;51.502;7.462;2023-03-12T07:57:59;18.40;59.70
79065;DHT22;68469;51.502;7.462;2023-03-12T08:00:26;18.50;59.80
79065;DHT22;68469;51.502;7.462;2023-03-12T08:02:52;18.50;59.80
79065;DHT22;68469;51.502;7.462;2023-03-12T08:05:18;18.40;59.80
79065;DHT22;68469;51.502;7.462;2023-03-12T08:07:44;18.40;59.80
79065;DHT22;68469;51.502;7.462;2023-03-12T08:10:10;18.40;59.80
79065;DHT22;68469;51.502;7.462;2023-03-12T08:12:36;18.40;59.80
79065;DHT22;68469;51.502;7.462;2023-03-12T08:15:06;18.40;59.80
79065;DHT22;68469;51.502;7.462;2023-03-12T08:17:33;18.40;59.80
79065;DHT22;68469;51.502;7.462;2023-03-12T08:19:58;18.40;59.80
79065;DHT22;68469;51.502;7.462;2023-03-12T08:22:24;18.40;59.80
79065;DHT22;68469;51.502;7.462;2023-03-12T08:24:50;18.40;59.70
79065;DHT22;68469;51.502;7.462;2023-03-12T08:27:15;18.40;59.70
79065;DHT22;68469;51.502;7.462;2023-03-12T08:29:41;18.40;59.70
79065;DHT22;68469;51.502;7.462;2023-03-12T08:32:07;18.40;59.80
79065;DHT22;68469;51.502;7.462;2023-03-12T08:34:34;18.40;59.80
79065;DHT22;68469;51.502;7.462;2023-03-12T08:37:00;18.40;59.80
79065;DHT22;68469;51.502;7.462;2023-03-12T08:39:27;18.40;59.70
79065;DHT22;68469;51.502;7.462;2023-03-12T08:41:52;18.40;59.70
79065;DHT22;68469;51.502;7.462;2023-03-12T08:44:21;18.50;59.80
79065;DHT22;68469;51.502;7.462;2023-03-12T08:46:46;18.40;59.80
79065;DHT22;68469;51.502;7.462;2023-03-12T08:49:13;18.40;59.70
79065;DHT22;68469;51.502;7.462;2023-03-12T08:51:39;18.40;59.80
79065;DHT22;68469;51.502;7.462;2023-03-12T08:54:04;18.40;59.80
79065;DHT22;68469;51.502;7.462;2023-03-12T08:56:31;18.40;59.80
79065;DHT22;68469;51.502;7.462;2023-03-12T08:58:59;18.40;59.70
79065;DHT22;68469;51.502;7.462;2023-03-12T09:01:25;18.40;59.80
79065;DHT22;68469;51.502;7.462;2023-03-12T09:03:50;18.40;59.70
79065;DHT22;68469;51.502;7.462;2023-03-12T09:06:18;18.40;59.80
79065;DHT22;68469;51.502;7.462;2023-03-12T09:08:45;18.40;59.80
79065;DHT22;68469;51.502;7.462;2023-03-12T09:11:12;18.40;59.70
79065;DHT22;68469;51.502;7.462;2023-03-12T09:13:39;18.40;59.70
79065;DHT22;68469;51.502;7.462;2023-03-12T09:16:07;18.40;60.30
79065;DHT22;68469;51.502;7.462;2023-03-12T09:18:33;18.40;59.60
79065;DHT22;68469;51.502;7.462;2023-03-12T09:20:59;18.40;59.60
79065;DHT22;68469;51.502;7.462;2023-03-12T09:23:25;18.50;60.30
79065;DHT22;68469;51.502;7.462;2023-03-12T09:25:51;18.50;59.70
79065;DHT22;68469;51.502;7.462;2023-03-12T09:28:18;18.50;59.70
79065;DHT22;68469;51.502;7.462;2023-03-12T09:30:44;18.40;59.60
79065;DHT22;68469;51.502;7.462;2023-03-12T09:33:10;18.50;59.70
79065;DHT22;68469;51.502;7.462;2023-03-12T09:35:35;18.50;59.70
79065;DHT22;68469;51.502;7.462;2023-03-12T09:38:02;18.50;59.70
79065;DHT22;68469;51.502;7.462;2023-03-12T09:40:33;18.50;59.80
79065;DHT22;68469;51.502;7.462;2023-03-12T09:43:12;18.40;59.70
79065;DHT22;68469;51.502;7.462;2023-03-12T09:45:44;18.50;59.80
79065;DHT22;68469;51.502;7.462;2023-03-12T09:48:24;18.50;59.70
79065;DHT22;68469;51.502;7.462;2023-03-12T09:50:52;18.50;59.80
79065;DHT22;68469;51.502;7.462;2023-03-12T09:53:31;18.40;59.70
79065;DHT22;68469;51.502;7.462;2023-03-12T09:55:59;18.40;59.70
79065;DHT22;68469;51.502;7.462;2023-03-12T09:58:32;18.40;59.70
79065;DHT22;68469;51.502;7.462;2023-03-12T10:01:22;18.50;59.70
79065;DHT22;68469;51.502;7.462;2023-03-12T10:03:51;18.50;59.80
79065;DHT22;68469;51.502;7.462;2023-03-12T10:06:29;18.50;59.90
79065;DHT22;68469;51.502;7.462;2023-03-12T10:19:58;18.40;59.80
79065;DHT22;68469;51.502;7.462;2023-03-12T10:22:45;18.50;59.90
79065;DHT22;68469;51.502;7.462;2023-03-12T10:25:18;18.50;59.90
79065;DHT22;68469;51.502;7.462;2023-03-12T10:27:46;18.40;59.70
79065;DHT22;68469;51.502;7.462;2023-03-12T10:30:24;18.50;59.90
79065;DHT22;68469;51.502;7.462;2023-03-12T10:32:57;18.40;59.70
79065;DHT22;68469;51.502;7.462;2023-03-12T10:35:25;18.40;59.80
79065;DHT22;68469;51.502;7.462;2023-03-12T10:37:58;18.50;59.80
79065;DHT22;68469;51.502;7.462;2023-03-12T10:40:32;18.40;59.60
79065;DHT22;68469;51.502;7.462;2023-03-12T10:42:59;18.50;59.70
79065;DHT22;68469;51.502;7.462;2023-03-12T10:48:08;18.50;59.80
79065;DHT22;68469;51.502;7.462;2023-03-12T10:50:37;18.50;59.70
79065;DHT22;68469;51.502;7.462;2023-03-12T10:58:39;18.50;59.70
79065;DHT22;68469;51.502;7.462;2023-03-12T11:03:38;18.50;59.70
79065;DHT22;68469;51.502;7.462;2023-03-12T11:06:06;18.50;59.70
79065;DHT22;68469;51.502;7.462;2023-03-12T11:08:36;18.50;59.70
79065;DHT22;68469;51.502;7.462;2023-03-12T11:11:03;18.50;59.70
79065;DHT22;68469;51.502;7.462;2023-03-12T11:13:38;18.50;59.70
79065;DHT22;68469;51.502;7.462;2023-03-12T11:18:55;18.50;59.70
79065;DHT22;68469;51.502;7.462;2023-03-12T11:21:22;18.50;59.60
79065;DHT22;68469;51.502;7.462;2023-03-12T11:29:31;18.50;59.80
79065;DHT22;68469;51.502;7.462;2023-03-12T11:32:32;18.50;59.80
79065;DHT22;68469;51.502;7.462;2023-03-12T11:34:59;18.40;59.70
79065;DHT22;68469;51.502;7.462;2023-03-12T11:37:53;18.50;59.80
79065;DHT22;68469;51.502;7.462;2023-03-12T11:46:19;18.50;59.80
79065;DHT22;68469;51.502;7.462;2023-03-12T11:51:49;18.50;59.80
79065;DHT22;68469;51.502;7.462;2023-03-12T12:00:05;18.50;59.80
79065;DHT22;68469;51.502;7.462;2023-03-12T12:11:17;18.50;59.80
79065;DHT22;68469;51.502;7.462;2023-03-12T12:27:51;18.60;59.50
79065;DHT22;68469;51.502;7.462;2023-03-12T12:30:28;18.60;59.50
79065;DHT22;68469;51.502;7.462;2023-03-12T12:35:42;18.60;59.60
79065;DHT22;68469;51.502;7.462;2023-03-12T12:41:31;18.70;59.40
79065;DHT22;68469;51.502;7.462;2023-03-12T12:44:03;18.70;59.70
79065;DHT22;68469;51.502;7.462;2023-03-12T12:46:39;18.70;59.70
79065;DHT22;68469;51.502;7.462;2023-03-12T12:49:12;18.70;59.60
79065;DHT22;68469;51.502;7.462;2023-03-12T12:51:42;18.70;59.60
79065;DHT22;68469;51.502;7.462;2023-03-12T12:54:33;18.70;59.50
79065;DHT22;68469;51.502;7.462;2023-03-12T12:57:12;18.80;59.60
79065;DHT22;68469;51.502;7.462;2023-03-12T13:02:33;18.80;59.50
79065;DHT22;68469;51.502;7.462;2023-03-12T13:05:02;18.80;59.50
79065;DHT22;68469;51.502;7.462;2023-03-12T13:07:30;18.80;59.60
79065;DHT22;68469;51.502;7.462;2023-03-12T13:09:57;18.80;59.60
79065;DHT22;68469;51.502;7.462;2023-03-12T13:12:52;18.80;59.50
79065;DHT22;68469;51.502;7.462;2023-03-12T13:20:22;18.80;59.70
79065;DHT22;68469;51.502;7.462;2023-03-12T13:22:55;18.80;59.70
79065;DHT22;68469;51.502;7.462;2023-03-12T13:30:51;18.90;59.70
79065;DHT22;68469;51.502;7.462;2023-03-12T13:33:20;18.90;59.80
79065;DHT22;68469;51.502;7.462;2023-03-12T13:36:25;18.90;59.70
79065;DHT22;68469;51.502;7.462;2023-03-12T13:38:58;18.90;59.50
79065;DHT22;68469;51.502;7.462;2023-03-12T13:41:46;18.90;59.60
79065;DHT22;68469;51.502;7.462;2023-03-12T13:49:42;19.00;59.40
79065;DHT22;68469;51.502;7.462;2023-03-12T13:52:26;19.00;59.70
79065;DHT22;68469;51.502;7.462;2023-03-12T13:55:20;19.00;59.70
79065;DHT22;68469;51.502;7.462;2023-03-12T13:57:49;19.00;59.80
79065;DHT22;68469;51.502;7.462;2023-03-12T14:00:30;19.00;59.70
79065;DHT22;68469;51.502;7.462;2023-03-12T14:03:10;18.90;59.60
79065;DHT22;68469;51.502;7.462;2023-03-12T14:05:59;18.90;59.70
79065;DHT22;68469;51.502;7.462;2023-03-12T14:16:46;19.00;59.80
79065;DHT22;68469;51.502;7.462;2023-03-12T14:19:15;19.00;60.00
79065;DHT22;68469;51.502;7.462;2023-03-12T14:21:43;19.00;60.40
79065;DHT22;68469;51.502;7.462;2023-03-12T14:24:37;19.10;59.90
79065;DHT22;68469;51.502;7.462;2023-03-12T14:27:03;19.10;59.90
79065;DHT22;68469;51.502;7.462;2023-03-12T14:29:35;19.10;59.90
79065;DHT22;68469;51.502;7.462;2023-03-12T14:32:16;19.20;60.00
79065;DHT22;68469;51.502;7.462;2023-03-12T14:34:52;19.20;59.70
79065;DHT22;68469;51.502;7.462;2023-03-12T14:37:22;19.20;59.90
79065;DHT22;68469;51.502;7.462;2023-03-12T14:39:49;19.30;59.40
79065;DHT22;68469;51.502;7.462;2023-03-12T14:42:26;19.30;59.60
79065;DHT22;68469;51.502;7.462;2023-03-12T14:44:58;19.30;59.80
79065;DHT22;68469;51.502;7.462;2023-03-12T14:47:26;19.30;59.60
79065;DHT22;68469;51.502;7.462;2023-03-12T14:49:54;19.30;59.70
79065;DHT22;68469;51.502;7.462;2023-03-12T14:52:26;19.30;59.60
79065;DHT22;68469;51.502;7.462;2023-03-12T14:54:55;19.30;59.70
79065;DHT22;68469;51.502;7.462;2023-03-12T14:57:21;19.30;59.60
79065;DHT22;68469;51.502;7.462;2023-03-12T14:59:59;19.20;59.70
79065;DHT22;68469;51.502;7.462;2023-03-12T15:02:27;19.20;59.90
79065;DHT22;68469;51.502;7.462;2023-03-12T15:04:56;19.20;59.80
79065;DHT22;68469;51.502;7.462;2023-03-12T15:07:31;19.20;59.80
79065;DHT22;68469;51.502;7.462;2023-03-12T15:09:58;19.20;59.80
79065;DHT22;68469;51.502;7.462;2023-03-12T15:12:34;19.20;59.50
79065;DHT22;68469;51.502;7.462;2023-03-12T15:15:24;19.10;59.30
79065;DHT22;68469;51.502;7.462;2023-03-12T15:17:52;19.20;59.90
79065;DHT22;68469;51.502;7.462;2023-03-12T15:20:20;19.20;59.40
79065;DHT22;68469;51.502;7.462;2023-03-12T15:22:47;19.20;60.10
79065;DHT22;68469;51.502;7.462;2023-03-12T15:25:28;19.20;59.30
79065;DHT22;68469;51.502;7.462;2023-03-12T15:31:10;19.20;59.20
79065;DHT22;68469;51.502;7.462;2023-03-12T15:33:37;19.20;59.90
79065;DHT22;68469;51.502;7.462;2023-03-12T15:38:49;19.20;59.70
79065;DHT22;68469;51.502;7.462;2023-03-12T15:41:22;19.20;59.70
79065;DHT22;68469;51.502;7.462;2023-03-12T15:43:54;19.20;60.30
79065;DHT22;68469;51.502;7.462;2023-03-12T15:46:21;19.20;60.40
79065;DHT22;68469;51.502;7.462;2023-03-12T15:48:53;19.30;60.00
79065;DHT22;68469;51.502;7.462;2023-03-12T15:51:27;19.30;59.90
79065;DHT22;68469;51.502;7.462;2023-03-12T15:56:38;19.20;59.80
79065;DHT22;68469;51.502;7.462;2023-03-12T15:59:21;19.20;60.10
79065;DHT22;68469;51.502;7.462;2023-03-12T16:01:48;19.20;59.90
79065;DHT22;68469;51.502;7.462;2023-03-12T16:04:15;19.20;59.90
79065;DHT22;68469;51.502;7.462;2023-03-12T16:06:41;19.20;59.90
79065;DHT22;68469;51.502;7.462;2023-03-12T16:09:32;19.20;60.00
79065;DHT22;68469;51.502;7.462;2023-03-12T16:11:58;19.20;59.90
79065;DHT22;68469;51.502;7.462;2023-03-12T16:14:29;19.20;60.60
79065;DHT22;68469;51.502;7.462;2023-03-12T16:16:55;19.10;60.00
79065;DHT22;68469;51.502;7.462;2023-03-12T16:19:28;19.10;59.80
79065;DHT22;68469;51.502;7.462;2023-03-12T16:21:53;19.10;59.80
79065;DHT22;68469;51.502;7.462;2023-03-12T16:24:19;19.10;60.00
79065;DHT22;68469;51.502;7.462;2023-03-12T16:26:50;19.10;60.00
79065;DHT22;68469;51.502;7.462;2023-03-12T16:29:17;19.10;60.00
79065;DHT22;68469;51.502;7.462;2023-03-12T16:31:44;19.10;60.80
79065;DHT22;68469;51.502;7.462;2023-03-12T16:34:11;19.10;60.30
79065;DHT22;68469;51.502;7.462;2023-03-12T16:36:37;19.10;60.20
79065;DHT22;68469;51.502;7.462;2023-03-12T16:39:03;19.10;60.20
79065;DHT22;68469;51.502;7.462;2023-03-12T16:41:29;19.10;60.20
79065;DHT22;68469;51.502;7.462;2023-03-12T16:43:56;19.10;60.20
79065;DHT22;68469;51.502;7.462;2023-03-12T16:46:26;19.10;60.20
79065;DHT22;68469;51.502;7.462;2023-03-12T16:48:52;19.10;60.30
79065;DHT22;68469;51.502;7.462;2023-03-12T16:51:18;19.10;60.20
79065;DHT22;68469;51.502;7.462;2023-03-12T16:53:43;19.00;60.10
79065;DHT22;68469;51.502;7.462;2023-03-12T16:56:18;19.00;60.30
79065;DHT22;68469;51.502;7.462;2023-03-12T16:58:45;19.00;60.20
79065;DHT22;68469;51.502;7.462;2023-03-12T17:01:15;19.00;60.30
79065;DHT22;68469;51.502;7.462;2023-03-12T17:03:43;19.00;60.20
79065;DHT22;68469;51.502;7.462;2023-03-12T17:06:18;19.00;60.40
79065;DHT22;68469;51.502;7.462;2023-03-12T17:08:44;19.00;60.30
79065;DHT22;68469;51.502;7.462;2023-03-12T17:13:44;19.00;60.40
79065;DHT22;68469;51.502;7.462;2023-03-12T17:16:12;19.00;60.60
79065;DHT22;68469;51.502;7.462;2023-03-12T17:18:39;19.00;60.50
79065;DHT22;68469;51.502;7.462;2023-03-12T17:21:05;19.00;60.40
79065;DHT22;68469;51.502;7.462;2023-03-12T17:23:31;19.00;60.40
79065;DHT22;68469;51.502;7.462;2023-03-12T17:25:57;19.00;60.50
79065;DHT22;68469;51.502;7.462;2023-03-12T17:28:23;19.00;60.60
79065;DHT22;68469;51.502;7.462;2023-03-12T17:30:49;19.00;60.40
79065;DHT22;68469;51.502;7.462;2023-03-12T17:33:16;19.00;60.40
79065;DHT22;68469;51.502;7.462;2023-03-12T17:35:43;19.00;60.60
79065;DHT22;68469;51.502;7.462;2023-03-12T17:38:10;19.00;60.40